Portada
METAR-TAF:

METAR-TAF

Aeroports :

Hómiel, Bielorússia

latitud: 52-31-36N, longitud: 031-01-06E, altitud: 144 m

Observació

L'informe es va fer fa 37 minuts, a les 13:30 UTC
Vent 12 kt del Est/Nord-Est amb ràfegues de 17 kt
Temperatura 28°C
Humitat 30%
Pressió 1024 hPa
Visibilitat 10 km o més
sense núvols per sota de 1500 mi sense presència de cumulonimbus.

METAR: UMGG 181330Z 07006G09MPS CAVOK 28/09 Q1024 R10/CLRD// NOSIG

Hora: 17:07 (14:07 UTC)

Pronòstic

L'informe es va fer fa 3 hores i 4 minuts, a les 11:03 UTC
Pronòstic vàlid del 18 a les 12 UTC al 19 a les 12 UTC
Vent 12 kt del Est
Visibilitat 10 km o més
sense núvols per sota de 1500 mi sense presència de cumulonimbus.
Temporalment
l' 18 a les 12 UTC al 18 a les 18 UTC
Vent 14 kt del Est/Sud-Est amb ràfegues de 23 kt
Temporalment
l' 19 a les 06 UTC al 19 a les 12 UTC
Vent 12 kt del Est/Sud-Est amb ràfegues de 21 kt

TAF: UMGG 181103Z 1812/1912 09006MPS CAVOK TX27/1812Z TN15/1902Z TEMPO 1812/1818 11007G12MPS TEMPO 1906/1912 11006G11MPS

Observacions i pronòstics meteorològics de més de 4000 aeroports (METAR i TAF).

Les estacions disponibles són els punts grocs i vermells al mapa.

Posi el ratolí al punt desitjat per veure el nom de l'estació.

Feu clic per veure les observacions i els pronòstics meteorològics.

Per canviar el mapa: feu clic els botons verds amb una creu de color negre per apropar; al botó verd amb un guió per allunyar la imatge; o en les fletxes verdes per a mapes adjacents.


METAR-TAF: